createdAt,value
2018-03-11T00:01:53.258Z,11.28
2018-03-11T00:04:26.545Z,11.28
2018-03-11T00:06:59.803Z,11.27
2018-03-11T00:09:33.089Z,11.27
2018-03-11T00:12:06.388Z,11.27
2018-03-11T00:14:39.768Z,11.26
2018-03-11T01:48:18.098Z,10.71
2018-03-11T01:50:51.376Z,10.70
2018-03-11T01:53:24.633Z,10.68
2018-03-11T01:55:58.679Z,10.65
2018-03-11T01:58:31.953Z,10.62
2018-03-11T03:32:10.986Z,10.06
2018-03-11T03:34:44.240Z,10.06
2018-03-11T03:37:18.281Z,10.05
2018-03-11T03:39:51.530Z,10.05
2018-03-11T03:42:25.572Z,10.03
2018-03-11T03:44:58.853Z,10.02
2018-03-11T04:46:02.767Z,9.77
2018-03-11T04:48:36.045Z,9.76
2018-03-11T04:51:10.080Z,9.75
2018-03-11T04:53:43.331Z,9.74
2018-03-11T04:56:16.595Z,9.73
2018-03-11T04:58:49.848Z,9.72
2018-03-11T06:03:11.120Z,9.42
2018-03-11T06:05:44.406Z,9.41
2018-03-11T06:08:18.424Z,9.43
2018-03-11T06:10:52.461Z,9.43
2018-03-11T06:13:25.713Z,9.40
2018-03-11T06:15:59.754Z,9.40
2018-03-11T06:18:33.008Z,9.39
2018-03-11T06:21:07.052Z,9.39
2018-03-11T06:23:40.314Z,9.41
2018-03-11T06:26:14.362Z,9.43
2018-03-11T06:28:48.390Z,9.46
2018-03-11T06:31:21.658Z,9.47
2018-03-11T06:33:54.921Z,9.48
2018-03-11T06:36:28.202Z,9.50
2018-03-11T06:39:01.453Z,9.54
2018-03-11T06:41:34.731Z,9.58
2018-03-11T06:44:08.037Z,9.62
2018-03-11T06:46:41.263Z,9.67
2018-03-11T06:49:14.522Z,9.71
2018-03-11T06:51:47.797Z,9.75
2018-03-11T06:54:21.832Z,9.80
2018-03-11T06:56:55.086Z,9.83
2018-03-11T06:59:29.121Z,9.88
2018-03-11T07:02:02.385Z,9.90
2018-03-11T07:04:35.648Z,9.95
2018-03-11T07:07:08.890Z,9.99
2018-03-11T07:09:42.938Z,10.04
2018-03-11T07:12:16.192Z,10.07
2018-03-11T07:14:50.246Z,10.12
2018-03-11T07:17:23.528Z,10.16
2018-03-11T07:19:56.780Z,10.18
2018-03-11T07:22:30.064Z,10.22
2018-03-11T07:25:03.310Z,10.26
2018-03-11T07:27:36.600Z,10.31
2018-03-11T07:30:09.845Z,10.36
2018-03-11T07:32:43.124Z,10.43
2018-03-11T07:35:16.409Z,10.47
2018-03-11T07:37:49.665Z,10.52
2018-03-11T07:40:22.954Z,10.56
2018-03-11T07:42:56.977Z,10.60
2018-03-11T07:45:30.275Z,10.63
2018-03-11T07:48:03.534Z,10.66
2018-03-11T07:50:37.614Z,10.69
2018-03-11T07:53:10.864Z,10.71
2018-03-11T07:55:44.144Z,10.73
2018-03-11T07:58:18.161Z,10.76
2018-03-11T08:00:52.220Z,10.79
2018-03-11T08:03:25.463Z,10.80
2018-03-11T08:05:59.509Z,10.83
2018-03-11T08:08:32.749Z,10.87
2018-03-11T08:11:06.022Z,10.90
2018-03-11T08:13:39.284Z,10.92
2018-03-11T08:16:12.587Z,10.93
2018-03-11T08:18:45.895Z,10.97
2018-03-11T08:21:19.135Z,11.01
2018-03-11T08:23:53.162Z,11.04
2018-03-11T08:26:26.445Z,11.09
2018-03-11T08:29:00.511Z,11.15
2018-03-11T08:31:33.772Z,11.17
2018-03-11T08:34:07.064Z,11.19
2018-03-11T08:36:40.310Z,11.22
2018-03-11T08:39:13.598Z,11.24
2018-03-11T08:41:46.853Z,11.27
2018-03-11T08:44:20.142Z,11.30
2018-03-11T08:46:53.396Z,11.32
2018-03-11T08:49:26.669Z,11.35
2018-03-11T08:52:00.149Z,11.37
2018-03-11T08:54:33.460Z,11.40
2018-03-11T08:57:06.942Z,11.41
2018-03-11T08:59:40.291Z,11.44
2018-03-11T09:02:14.507Z,11.45
2018-03-11T09:04:47.974Z,11.47
2018-03-11T09:07:21.429Z,11.49
2018-03-11T09:09:54.706Z,11.51
2018-03-11T09:12:28.762Z,11.53
2018-03-11T09:15:02.017Z,11.56
2018-03-11T09:17:35.298Z,11.60
2018-03-11T09:20:09.318Z,11.62
2018-03-11T09:22:43.409Z,11.65
2018-03-11T09:25:16.637Z,11.69
2018-03-11T09:27:49.921Z,11.73
2018-03-11T09:30:23.950Z,11.76
2018-03-11T09:32:57.246Z,11.77
2018-03-11T09:35:30.537Z,11.80
2018-03-11T09:38:03.794Z,11.87
2018-03-11T09:40:37.070Z,11.93
2018-03-11T09:43:10.319Z,11.98
2018-03-11T09:45:43.611Z,12.04
2018-03-11T09:48:16.870Z,12.08
2018-03-11T09:50:51.884Z,12.13
2018-03-11T09:53:25.960Z,12.16
2018-03-11T09:55:59.263Z,12.18
2018-03-11T09:58:32.647Z,12.23
2018-03-11T10:01:05.962Z,12.26
2018-03-11T10:03:39.279Z,12.32
2018-03-11T10:06:12.635Z,12.39
2018-03-11T10:08:45.966Z,12.44
2018-03-11T10:11:19.302Z,12.49
2018-03-11T10:13:53.341Z,12.54
2018-03-11T10:16:26.621Z,12.60
2018-03-11T10:18:59.916Z,12.63
2018-03-11T10:21:33.186Z,12.68
2018-03-11T10:24:07.248Z,12.74
2018-03-11T10:26:40.492Z,12.78
2018-03-11T10:29:14.554Z,12.83
2018-03-11T10:31:47.945Z,12.85
2018-03-11T10:34:21.285Z,12.87
2018-03-11T10:36:55.355Z,12.89
2018-03-11T10:39:28.756Z,12.90
2018-03-11T10:42:02.109Z,12.91
2018-03-11T10:44:36.163Z,12.95
2018-03-11T10:47:09.762Z,12.96
2018-03-11T10:49:43.106Z,12.99
2018-03-11T10:52:17.237Z,13.05
2018-03-11T10:54:50.758Z,13.07
2018-03-11T10:57:24.087Z,13.09
2018-03-11T10:59:57.524Z,13.13
2018-03-11T11:02:36.958Z,13.15
2018-03-11T11:05:11.142Z,13.20
2018-03-11T11:07:45.793Z,13.24
2018-03-11T11:10:19.250Z,13.27
2018-03-11T11:12:52.572Z,13.31
2018-03-11T11:15:26.020Z,13.37
2018-03-11T11:18:00.492Z,13.42
2018-03-11T11:20:33.974Z,13.43
2018-03-11T11:23:07.394Z,13.50
2018-03-11T11:25:40.826Z,13.57
2018-03-11T11:28:14.333Z,13.63
2018-03-11T11:30:47.664Z,13.69
2018-03-11T11:33:20.988Z,13.71
2018-03-11T11:35:54.308Z,13.72
2018-03-11T11:38:27.669Z,13.74
2018-03-11T11:41:01.805Z,13.73
2018-03-11T11:43:35.214Z,13.70
2018-03-11T11:46:08.638Z,13.68
2018-03-11T11:48:42.734Z,13.66
2018-03-11T11:51:16.312Z,13.66
2018-03-11T11:53:50.070Z,13.64
2018-03-11T11:56:23.431Z,13.61
2018-03-11T11:58:56.719Z,13.60
2018-03-11T12:01:30.839Z,13.61
2018-03-11T12:04:04.118Z,13.63
2018-03-11T12:06:37.413Z,13.68
2018-03-11T12:09:11.448Z,13.74
2018-03-11T12:11:44.734Z,13.84
2018-03-11T12:14:18.030Z,13.95
2018-03-11T12:16:51.349Z,14.08
2018-03-11T12:19:24.608Z,14.18
2018-03-11T12:21:58.649Z,14.31
2018-03-11T12:24:31.902Z,14.45
2018-03-11T12:27:05.942Z,14.59
2018-03-11T12:29:39.202Z,14.61
2018-03-11T12:32:12.501Z,14.65
2018-03-11T12:34:46.515Z,14.70
2018-03-11T12:37:20.577Z,14.74
2018-03-11T12:39:53.846Z,14.77
2018-03-11T12:42:27.129Z,14.88
2018-03-11T12:45:00.388Z,14.94
2018-03-11T12:47:33.688Z,14.97
2018-03-11T12:50:06.932Z,15.01
2018-03-11T12:52:40.205Z,15.00
2018-03-11T12:55:13.490Z,14.95
2018-03-11T12:57:46.745Z,14.90
2018-03-11T13:00:20.749Z,14.86
2018-03-11T13:02:54.002Z,14.78
2018-03-11T13:05:27.290Z,14.73
2018-03-11T13:08:00.931Z,14.69
2018-03-11T13:10:34.214Z,14.65
2018-03-11T13:13:07.509Z,14.63
2018-03-11T13:15:40.761Z,14.59
2018-03-11T13:18:14.041Z,14.54
2018-03-11T13:21:04.465Z,14.49
2018-03-11T13:23:38.494Z,14.45
2018-03-11T13:26:11.771Z,14.40
2018-03-11T13:28:49.525Z,14.37
2018-03-11T13:31:22.812Z,14.33
2018-03-11T13:34:13.839Z,14.30
2018-03-11T13:36:47.114Z,14.23
2018-03-11T13:39:38.233Z,14.22
2018-03-11T13:42:11.517Z,14.18
2018-03-11T13:44:44.782Z,14.15
2018-03-11T13:47:18.057Z,14.11
2018-03-11T13:49:51.309Z,14.13
2018-03-11T13:52:42.382Z,14.12
2018-03-11T13:55:15.635Z,14.07
2018-03-11T14:01:01.076Z,14.00
2018-03-11T14:03:35.484Z,14.04
2018-03-11T14:06:08.832Z,14.05
2018-03-11T14:08:42.085Z,14.02
2018-03-11T14:11:15.347Z,14.02
2018-03-11T14:13:49.526Z,14.02
2018-03-11T14:16:25.253Z,14.02
2018-03-11T14:18:58.643Z,14.04
2018-03-11T14:21:32.035Z,14.06
2018-03-11T14:24:05.402Z,14.07
2018-03-11T14:26:38.866Z,14.07
2018-03-11T14:29:12.295Z,14.07
2018-03-11T14:31:45.598Z,14.06
2018-03-11T14:34:19.830Z,14.08
2018-03-11T14:36:53.183Z,14.11
2018-03-11T14:39:26.508Z,14.14
2018-03-11T14:42:00.563Z,14.16
2018-03-11T14:44:33.885Z,14.16
2018-03-11T14:47:07.194Z,14.16
2018-03-11T14:49:40.482Z,14.16
2018-03-11T14:52:13.780Z,14.18
2018-03-11T14:54:47.081Z,14.19
2018-03-11T14:57:21.137Z,14.20
2018-03-11T14:59:54.401Z,14.20
2018-03-11T15:02:28.453Z,14.20
2018-03-11T15:05:01.745Z,14.18
2018-03-11T15:07:35.033Z,14.17
2018-03-11T15:10:08.294Z,14.15
2018-03-11T15:12:42.346Z,14.16
2018-03-11T15:15:15.642Z,14.15
2018-03-11T15:17:48.925Z,14.18
2018-03-11T15:20:22.184Z,14.20
2018-03-11T15:22:56.232Z,14.22
2018-03-11T15:25:29.483Z,14.18
2018-03-11T15:28:03.546Z,14.18
2018-03-11T15:30:36.806Z,14.19
2018-03-11T15:33:10.088Z,14.19
2018-03-11T15:35:43.340Z,14.18
2018-03-11T15:38:16.621Z,14.19
2018-03-11T15:40:49.893Z,14.23
2018-03-11T15:43:23.174Z,14.24
2018-03-11T15:45:57.194Z,14.26
2018-03-11T15:48:31.241Z,14.31
2018-03-11T15:51:04.498Z,14.33
2018-03-11T15:53:38.551Z,14.37
2018-03-11T15:56:11.829Z,14.36
2018-03-11T15:58:45.142Z,14.37
2018-03-11T16:01:18.422Z,14.36
2018-03-11T16:03:51.705Z,14.35
2018-03-11T16:06:24.969Z,14.35
2018-03-11T16:08:58.257Z,14.35
2018-03-11T16:11:31.518Z,14.35
2018-03-11T16:14:04.809Z,14.36
2018-03-11T16:16:38.069Z,14.37
2018-03-11T16:19:11.331Z,14.37
2018-03-11T16:21:44.626Z,14.37
2018-03-11T16:24:28.381Z,14.37
2018-03-11T16:26:51.152Z,14.37
2018-03-11T16:29:24.409Z,14.37
2018-03-11T16:31:58.458Z,14.39
2018-03-11T16:34:31.741Z,14.38
2018-03-11T16:37:05.767Z,14.39
2018-03-11T16:39:39.030Z,14.38
2018-03-11T16:42:13.082Z,14.35
2018-03-11T16:44:46.337Z,14.31
2018-03-11T16:47:19.629Z,14.26
2018-03-11T16:49:53.771Z,14.23
2018-03-11T16:52:27.814Z,14.20
2018-03-11T16:55:01.227Z,14.16
2018-03-11T16:57:35.341Z,14.12
2018-03-11T17:00:09.422Z,14.08
2018-03-11T17:02:43.091Z,14.05
2018-03-11T17:05:17.581Z,14.02
2018-03-11T17:07:52.978Z,13.99
2018-03-11T17:10:27.698Z,13.96
2018-03-11T17:13:01.327Z,13.93
2018-03-11T17:15:35.329Z,13.91
2018-03-11T17:18:09.773Z,13.88
2018-03-11T17:20:44.569Z,13.86
2018-03-11T17:23:18.903Z,13.84
2018-03-11T17:25:52.461Z,13.81
2018-03-11T17:28:26.107Z,13.76
2018-03-11T17:30:59.991Z,13.73
2018-03-11T17:33:33.601Z,13.70
2018-03-11T17:36:07.090Z,13.69
2018-03-11T17:38:40.717Z,13.65
2018-03-11T17:41:14.044Z,13.61
2018-03-11T17:43:47.349Z,13.55
2018-03-11T17:46:21.452Z,13.51
2018-03-11T17:48:54.945Z,13.47
2018-03-11T17:51:28.206Z,13.43
2018-03-11T17:54:02.521Z,13.43
2018-03-11T17:56:35.892Z,13.42
2018-03-11T17:59:09.190Z,13.42
2018-03-11T18:01:42.514Z,13.43
2018-03-11T18:04:16.016Z,13.43
2018-03-11T18:06:49.379Z,13.43
2018-03-11T18:09:22.763Z,13.39
2018-03-11T18:11:57.758Z,13.36
2018-03-11T18:14:31.886Z,13.32
2018-03-11T18:17:05.230Z,13.27
2018-03-11T18:19:38.581Z,13.22
2018-03-11T18:22:11.946Z,13.19
2018-03-11T18:24:45.497Z,13.16
2018-03-11T18:27:18.959Z,13.14
2018-03-11T18:29:52.309Z,13.12
2018-03-11T18:32:25.803Z,13.11
2018-03-11T18:34:59.252Z,13.10
2018-03-11T18:37:32.661Z,13.05
2018-03-11T18:40:06.021Z,13.07
2018-03-11T18:42:39.450Z,13.06
2018-03-11T18:45:12.980Z,13.10
2018-03-11T18:47:46.334Z,13.10
2018-03-11T18:50:20.405Z,13.12
2018-03-11T18:52:53.703Z,13.09
2018-03-11T18:55:27.090Z,13.11
2018-03-11T18:58:00.371Z,13.10
2018-03-11T19:00:34.615Z,13.07
2018-03-11T19:03:07.966Z,13.04
2018-03-11T19:05:41.312Z,13.00
2018-03-11T19:08:14.597Z,12.96
2018-03-11T19:10:47.921Z,12.94
2018-03-11T19:13:21.211Z,12.92
2018-03-11T19:15:54.622Z,12.89
2018-03-11T19:18:28.011Z,12.87
2018-03-11T19:21:01.353Z,12.85
2018-03-11T19:23:35.438Z,12.81
2018-03-11T19:26:08.760Z,12.76
2018-03-11T19:28:42.873Z,12.73
2018-03-11T19:31:16.200Z,12.69
2018-03-11T19:33:49.478Z,12.65
2018-03-11T19:36:22.850Z,12.60
2018-03-11T19:38:56.975Z,12.56
2018-03-11T19:41:31.250Z,12.54
2018-03-11T19:44:04.540Z,12.48
2018-03-11T19:46:37.952Z,12.45
2018-03-11T19:49:11.323Z,12.43
2018-03-11T19:51:44.663Z,12.40
2018-03-11T19:54:18.964Z,12.34
2018-03-11T19:56:54.848Z,12.30
2018-03-11T19:59:29.562Z,12.24
2018-03-11T20:02:07.513Z,12.21
2018-03-11T20:04:40.810Z,12.19
2018-03-11T20:07:14.064Z,12.20
2018-03-11T20:09:47.351Z,12.23
2018-03-11T20:12:20.601Z,12.23
2018-03-11T20:14:53.902Z,12.21
2018-03-11T20:17:27.146Z,12.20
2018-03-11T20:20:01.202Z,12.22
2018-03-11T20:22:34.471Z,12.21
2018-03-11T20:25:07.766Z,12.16
2018-03-11T20:27:41.022Z,12.10
2018-03-11T20:30:14.299Z,12.02
2018-03-11T20:32:47.590Z,11.94
2018-03-11T20:35:20.837Z,11.87
2018-03-11T20:37:54.122Z,11.81
2018-03-11T20:40:28.160Z,11.75
2018-03-11T20:43:02.265Z,11.69
2018-03-11T20:45:35.565Z,11.69
2018-03-11T20:48:09.562Z,11.72
2018-03-11T20:50:42.829Z,11.71
2018-03-11T20:53:16.884Z,11.73
2018-03-11T20:55:50.165Z,11.75
2018-03-11T20:58:23.422Z,11.78
2018-03-11T21:00:56.705Z,11.77
2018-03-11T21:03:29.957Z,11.77
2018-03-11T21:06:03.247Z,11.82
2018-03-11T21:08:36.522Z,11.85
2018-03-11T21:11:10.567Z,11.90
2018-03-11T21:13:43.853Z,11.89
2018-03-11T21:16:17.138Z,11.91
2018-03-11T21:18:50.398Z,11.93
2018-03-11T21:21:24.443Z,11.94
2018-03-11T21:23:57.709Z,11.94
2018-03-11T21:26:31.768Z,11.95
2018-03-11T21:29:05.073Z,11.96
2018-03-11T21:31:38.528Z,11.95
2018-03-11T21:34:15.809Z,11.94
2018-03-11T21:36:50.065Z,11.92
2018-03-11T21:39:23.523Z,11.90
2018-03-11T21:41:56.821Z,11.87
2018-03-11T21:44:30.847Z,11.83
2018-03-11T21:47:04.124Z,11.79
2018-03-11T21:49:37.643Z,11.78
2018-03-11T21:52:10.666Z,11.77
2018-03-11T21:54:43.934Z,11.78
2018-03-11T21:57:17.204Z,11.80
2018-03-11T21:59:50.473Z,11.80
2018-03-11T22:02:23.754Z,11.81
2018-03-11T22:04:57.014Z,11.81
2018-03-11T22:07:30.298Z,11.81
2018-03-11T22:10:03.553Z,11.82
2018-03-11T22:12:36.887Z,11.82
2018-03-11T22:15:10.152Z,11.82
2018-03-11T22:17:43.438Z,11.88
2018-03-11T22:20:16.698Z,11.88
2018-03-11T22:22:49.973Z,11.84
2018-03-11T22:25:23.230Z,11.83
2018-03-11T22:27:57.273Z,11.82
2018-03-11T22:30:30.590Z,11.81
2018-03-11T22:33:03.889Z,11.80
2018-03-11T22:35:37.162Z,11.77
2018-03-11T22:38:10.444Z,11.75
2018-03-11T22:40:43.699Z,11.73
2018-03-11T22:43:16.989Z,11.72
2018-03-11T22:45:50.246Z,11.67
2018-03-11T22:48:23.523Z,11.62
2018-03-11T22:50:56.812Z,11.62
2018-03-11T22:53:30.103Z,11.59
2018-03-11T22:56:03.366Z,11.58
2018-03-11T22:58:36.654Z,11.56
2018-03-11T23:01:09.909Z,11.58
2018-03-11T23:03:43.191Z,11.57
2018-03-11T23:06:16.473Z,11.56
2018-03-11T23:08:49.728Z,11.59
2018-03-11T23:11:23.009Z,11.63
2018-03-11T23:13:56.267Z,11.65
2018-03-11T23:16:29.546Z,11.68
2018-03-11T23:19:17.500Z,11.65
2018-03-11T23:21:50.694Z,11.69
2018-03-11T23:24:23.965Z,11.72
2018-03-11T23:26:57.229Z,11.75
2018-03-11T23:29:30.506Z,11.76
2018-03-11T23:32:03.759Z,11.76
2018-03-11T23:34:37.041Z,11.77
2018-03-11T23:37:10.326Z,11.78
2018-03-11T23:39:43.574Z,11.79
2018-03-11T23:42:16.900Z,11.79
2018-03-11T23:44:50.156Z,11.81
2018-03-11T23:47:23.529Z,11.82
2018-03-11T23:49:56.797Z,11.80
2018-03-11T23:52:30.849Z,11.78
2018-03-11T23:55:04.102Z,11.76
2018-03-11T23:57:38.174Z,11.70
